Time;durP1;ratioP1;P1;durP2;ratioP2;P2;SDS_P1;SDS_P2;PMS_P1;PMS_P2;Temp;Humidity;BMP_temperature;BMP_pressure;BME280_temperature;BME280_humidity;BME280_pressure;Samples;Min_cycle;Max_cycle;Signal;HPM_P1;HPM_P2
2022/03/06 00:04:48;;;;;;;22.20;14.48;;;;;;;-0.95;54.88;100492.97;10304576;28;20495;-70
2022/03/06 00:09:50;;;;;;;24.08;14.90;;;;;;;-0.86;54.79;100494.66;10303263;28;20065;-69
2022/03/06 00:14:52;;;;;;;20.25;13.70;;;;;;;-0.85;54.93;100493.75;10303806;28;20054;-69
2022/03/06 00:19:55;;;;;;;20.30;13.43;;;;;;;-0.84;55.16;100500.63;10303575;28;20050;-70
2022/03/06 00:24:58;;;;;;;21.90;13.98;;;;;;;-0.79;54.91;100498.88;10303055;28;20053;-69
2022/03/06 00:30:00;;;;;;;23.45;13.32;;;;;;;-0.77;54.85;100505.72;10302499;28;20434;-70
2022/03/06 00:35:02;;;;;;;22.48;13.45;;;;;;;-1.00;55.18;100502.38;10302609;28;20054;-69
2022/03/06 00:40:05;;;;;;;27.58;14.90;;;;;;;-0.97;55.23;100492.13;10303984;28;20066;-69
2022/03/06 00:45:07;;;;;;;23.02;14.07;;;;;;;-0.96;55.24;100505.81;10302463;28;20050;-69
2022/03/06 00:50:09;;;;;;;22.30;14.25;;;;;;;-1.06;55.41;100511.84;10302720;28;20157;-69
2022/03/06 00:55:11;;;;;;;20.55;13.43;;;;;;;-1.27;55.62;100516.16;10304228;28;20047;-69
2022/03/06 01:00:13;;;;;;;22.60;14.40;;;;;;;-1.33;55.53;100520.47;10303689;28;20054;-70
2022/03/06 01:05:15;;;;;;;21.83;13.35;;;;;;;-1.43;55.87;100522.19;10301388;28;20046;-70
2022/03/06 01:10:17;;;;;;;19.85;13.38;;;;;;;-1.62;56.29;100517.09;10303314;28;20302;-69
2022/03/06 01:15:19;;;;;;;20.85;12.48;;;;;;;-1.69;56.62;100523.09;10302550;28;20720;-69
2022/03/06 01:20:23;;;;;;;18.08;12.27;;;;;;;-1.75;56.66;100516.25;10302317;28;20050;-70
2022/03/06 01:25:25;;;;;;;17.92;12.43;;;;;;;-1.79;56.78;100518.81;10303317;28;20417;-70
2022/03/06 01:30:27;;;;;;;20.63;13.05;;;;;;;-1.86;56.94;100512.00;10307891;28;20136;-70
2022/03/06 01:35:29;;;;;;;19.88;13.30;;;;;;;-1.98;57.33;100513.69;10308794;28;20569;-70
2022/03/06 01:40:31;;;;;;;21.13;14.07;;;;;;;-1.96;57.42;100523.13;10309708;28;20053;-70
2022/03/06 01:45:33;;;;;;;23.75;14.85;;;;;;;-1.99;57.32;100511.16;10309769;28;20045;-69
2022/03/06 01:50:36;;;;;;;21.00;13.82;;;;;;;-2.08;57.44;100513.69;10309488;28;20514;-69
2022/03/06 01:55:39;;;;;;;19.30;12.85;;;;;;;-2.17;57.84;100517.13;10309874;28;20471;-69
2022/03/06 02:00:48;;;;;;;22.40;12.88;;;;;;;-2.20;57.98;100511.97;10309318;28;20042;-70
2022/03/06 02:05:50;;;;;;;21.77;13.07;;;;;;;-2.23;57.63;100514.56;10309796;28;20054;-69
2022/03/06 02:10:53;;;;;;;20.02;13.38;;;;;;;-2.28;57.73;100517.94;10309468;28;20137;-70
2022/03/06 02:15:55;;;;;;;25.83;13.88;;;;;;;-2.35;57.96;100517.09;10308814;28;20057;-69
2022/03/06 02:20:57;;;;;;;21.70;13.43;;;;;;;-2.44;58.20;100514.50;10308424;28;20407;-70
2022/03/06 02:25:59;;;;;;;21.60;13.57;;;;;;;-2.43;58.40;100512.81;10308022;28;20137;-69
2022/03/06 02:31:01;;;;;;;21.73;13.35;;;;;;;-2.45;58.41;100519.66;10307986;28;20113;-68
2022/03/06 02:36:03;;;;;;;20.95;13.35;;;;;;;-2.47;58.15;100527.31;10307073;28;20052;-68
2022/03/06 02:41:05;;;;;;;20.30;13.45;;;;;;;-2.62;58.29;100517.03;10306007;28;20056;-69
2022/03/06 02:46:07;;;;;;;21.85;13.38;;;;;;;-2.70;58.61;100517.88;10308040;28;20046;-69
2022/03/06 02:51:09;;;;;;;18.77;12.00;;;;;;;-2.63;58.78;100517.88;10307680;28;20046;-68
2022/03/06 02:56:11;;;;;;;19.90;13.02;;;;;;;-2.63;58.74;100517.88;10308102;28;20054;-69
2022/03/06 03:01:15;;;;;;;23.05;13.90;;;;;;;-2.64;58.93;100517.88;10307132;28;20294;-70
2022/03/06 03:06:17;;;;;;;21.52;13.15;;;;;;;-2.73;58.73;100523.00;10314449;28;20058;-69
2022/03/06 03:11:19;;;;;;;19.85;12.95;;;;;;;-2.76;58.88;100516.16;10314570;28;20145;-68
2022/03/06 03:16:21;;;;;;;19.58;12.90;;;;;;;-2.79;58.94;100521.25;10314581;28;20060;-68
2022/03/06 03:21:23;;;;;;;22.80;13.38;;;;;;;-2.82;59.03;100526.38;10312629;28;20090;-69
2022/03/06 03:26:25;;;;;;;20.23;13.18;;;;;;;-2.84;59.03;100528.06;10313873;28;20139;-68
2022/03/06 03:31:27;;;;;;;21.45;12.68;;;;;;;-2.88;59.01;100536.59;10314407;28;20090;-69
2022/03/06 03:36:29;;;;;;;19.70;12.48;;;;;;;-2.90;59.03;100534.00;10313527;28;20050;-69
2022/03/06 03:41:31;;;;;;;22.83;13.70;;;;;;;-2.92;59.12;100533.13;10313871;28;20165;-68
2022/03/06 03:46:33;;;;;;;20.50;12.20;;;;;;;-2.95;58.95;100538.25;10312892;28;20117;-69
2022/03/06 03:51:35;;;;;;;22.50;14.20;;;;;;;-2.99;59.18;100538.22;10311674;28;20050;-69
2022/03/06 03:56:36;;;;;;;23.38;13.77;;;;;;;-3.05;59.12;100541.63;10312528;28;20038;-70
2022/03/06 04:01:38;;;;;;;22.88;14.00;;;;;;;-3.20;59.15;100548.38;10309825;28;20054;-69
2022/03/06 04:06:40;;;;;;;21.08;13.15;;;;;;;-3.20;59.46;100550.94;10306707;28;20089;-69
2022/03/06 04:11:42;;;;;;;23.20;13.70;;;;;;;-3.21;59.46;100552.63;10305082;28;20197;-68
2022/03/06 04:16:44;;;;;;;23.88;14.88;;;;;;;-3.24;59.51;100564.56;10305221;28;20089;-69
2022/03/06 04:21:45;;;;;;;27.70;16.30;;;;;;;-3.34;59.51;100570.44;10305138;28;20046;-68
2022/03/06 04:26:47;;;;;;;25.73;15.50;;;;;;;-3.39;59.59;100572.13;10304512;28;20145;-68
2022/03/06 04:31:49;;;;;;;23.58;14.30;;;;;;;-3.44;59.62;100569.53;10305015;28;20066;-68
2022/03/06 04:36:51;;;;;;;22.40;14.30;;;;;;;-3.44;59.69;100579.75;10303584;28;20440;-68
2022/03/06 04:41:53;;;;;;;20.30;13.02;;;;;;;-3.45;59.82;100585.72;10304221;28;20054;-68
2022/03/06 04:46:55;;;;;;;19.92;12.45;;;;;;;-3.47;59.71;100587.41;10303461;28;20086;-68
2022/03/06 04:51:57;;;;;;;20.70;13.13;;;;;;;-3.49;59.85;100588.25;10304350;28;20144;-68
2022/03/06 04:57:00;;;;;;;21.73;13.40;;;;;;;-3.50;59.82;100599.28;10302873;28;20322;-68
2022/03/06 05:02:03;;;;;;;24.33;13.50;;;;;;;-3.55;59.82;100599.28;10302488;28;20124;-68
2022/03/06 05:07:05;;;;;;;21.63;13.05;;;;;;;-3.59;59.91;100606.91;10312327;28;20047;-69
2022/03/06 05:12:08;;;;;;;21.90;13.50;;;;;;;-3.65;59.77;100614.53;10312402;28;20050;-69
2022/03/06 05:17:10;;;;;;;21.20;13.65;;;;;;;-3.72;59.85;100603.41;10312058;28;20565;-69
2022/03/06 05:22:12;;;;;;;22.15;14.27;;;;;;;-3.83;60.13;100616.06;10312117;28;20050;-68
2022/03/06 05:27:14;;;;;;;20.40;13.15;;;;;;;-3.88;60.28;100610.09;10309943;28;20046;-68
2022/03/06 05:32:16;;;;;;;23.25;14.10;;;;;;;-3.91;60.21;100609.19;10311326;28;20054;-69
2022/03/06 05:37:17;;;;;;;22.27;13.57;;;;;;;-3.93;60.33;100616.84;10310302;28;20133;-68
2022/03/06 05:42:19;;;;;;;29.98;16.20;;;;;;;-3.96;60.46;100615.97;10309386;28;20604;-68
2022/03/06 05:47:21;;;;;;;24.95;15.52;;;;;;;-3.98;60.44;100621.06;10311168;28;20050;-68
2022/03/06 05:52:23;;;;;;;24.40;15.18;;;;;;;-3.96;60.28;100628.72;10310670;28;20050;-67
2022/03/06 05:57:25;;;;;;;26.25;15.82;;;;;;;-4.00;60.56;100632.97;10310492;28;20775;-68
2022/03/06 06:02:27;;;;;;;27.30;16.63;;;;;;;-4.00;60.34;100634.66;10308736;28;20142;-68
2022/03/06 06:07:29;;;;;;;23.58;15.07;;;;;;;-3.98;60.37;100640.63;10308670;28;20403;-68
2022/03/06 06:12:30;;;;;;;22.60;13.93;;;;;;;-3.92;60.38;100646.66;10308371;28;20885;-68
2022/03/06 06:17:32;;;;;;;24.10;14.38;;;;;;;-3.94;60.22;100645.81;10309464;28;20160;-68
2022/03/06 06:22:35;;;;;;;25.10;14.50;;;;;;;-3.92;60.28;100648.34;10309672;28;20054;-68
2022/03/06 06:27:36;;;;;;;24.55;14.35;;;;;;;-3.87;60.37;100649.25;10309757;28;20177;-68
2022/03/06 06:32:38;;;;;;;22.25;13.88;;;;;;;-3.72;60.12;100657.94;10309406;28;20058;-68
2022/03/06 06:37:40;;;;;;;21.85;13.40;;;;;;;-3.54;59.94;100658.91;10309291;28;20054;-68
2022/03/06 06:42:42;;;;;;;24.55;14.60;;;;;;;-3.29;59.80;100663.41;10308653;28;20136;-67
2022/03/06 06:47:43;;;;;;;23.38;14.63;;;;;;;-3.04;59.57;100667.84;10308045;28;20456;-68
2022/03/06 06:52:45;;;;;;;23.05;13.85;;;;;;;-2.87;59.26;100664.53;10308850;28;20519;-68
2022/03/06 06:57:47;;;;;;;20.00;12.73;;;;;;;-2.73;59.12;100664.63;10308969;28;20050;-68
2022/03/06 07:02:49;;;;;;;19.98;12.68;;;;;;;-2.43;58.69;100676.72;10309528;28;20902;-68
2022/03/06 07:07:51;;;;;;;20.08;13.32;;;;;;;-2.26;58.61;100675.94;10308057;28;20050;-68
2022/03/06 07:12:55;;;;;;;21.95;14.20;;;;;;;-2.17;58.39;100678.53;10306196;28;20050;-68
2022/03/06 07:17:57;;;;;;;22.15;14.35;;;;;;;-2.13;58.38;100687.97;10308202;28;20042;-68
2022/03/06 07:22:59;;;;;;;21.70;13.13;;;;;;;-1.92;58.32;100686.31;10309112;28;20138;-68
2022/03/06 07:28:01;;;;;;;20.73;13.15;;;;;;;-1.72;57.99;100690.63;10305790;28;20054;-69
2022/03/06 07:33:03;;;;;;;20.23;13.20;;;;;;;-1.54;57.74;100684.66;10306632;28;20153;-68
2022/03/06 07:38:05;;;;;;;22.92;13.63;;;;;;;-1.45;57.66;100700.06;10307025;28;20136;-69
2022/03/06 07:43:07;;;;;;;20.33;13.75;;;;;;;-1.39;57.86;100693.22;10306852;28;20141;-69
2022/03/06 07:48:09;;;;;;;21.83;13.90;;;;;;;-1.06;57.80;100694.09;10305457;28;20050;-68
2022/03/06 07:53:10;;;;;;;24.13;14.32;;;;;;;-0.79;57.16;100692.34;10306560;28;20061;-68
2022/03/06 07:58:12;;;;;;;18.90;12.40;;;;;;;-0.50;57.02;100695.69;10307497;28;20440;-68
2022/03/06 08:03:15;;;;;;;20.45;13.27;;;;;;;0.20;56.02;100688.50;10306651;28;20137;-69
2022/03/06 08:08:18;;;;;;;19.48;12.93;;;;;;;0.86;54.77;100691.47;10306357;28;20392;-68
2022/03/06 08:13:20;;;;;;;19.17;13.35;;;;;;;1.38;53.63;100696.13;10303378;28;20060;-68
2022/03/06 08:18:22;;;;;;;20.65;13.68;;;;;;;1.99;52.25;100698.84;10306203;28;20046;-68
2022/03/06 08:23:24;;;;;;;21.13;13.65;;;;;;;2.58;51.07;100692.00;10304767;28;20132;-68
2022/03/06 08:28:26;;;;;;;19.35;13.45;;;;;;;3.10;49.93;100687.69;10305501;28;20499;-68
2022/03/06 08:33:27;;;;;;;22.17;13.82;;;;;;;3.61;48.50;100683.28;10305203;28;20064;-69
2022/03/06 08:38:29;;;;;;;21.13;14.40;;;;;;;3.98;47.38;100681.72;10304589;28;20145;-68
2022/03/06 08:43:31;;;;;;;20.30;14.13;;;;;;;4.02;47.17;100679.91;10305146;28;20064;-68
2022/03/06 08:48:37;;;;;;;20.23;13.75;;;;;;;3.50;46.66;100677.47;10302435;28;20061;-68
2022/03/06 08:53:39;;;;;;;18.45;13.35;;;;;;;3.38;47.00;100691.47;10304697;28;20089;-68
2022/03/06 08:58:41;;;;;;;19.75;12.75;;;;;;;3.56;46.33;100693.72;10303425;28;20479;-68
2022/03/06 09:03:43;;;;;;;23.77;14.45;;;;;;;3.69;46.36;100691.75;10304751;28;20068;-69
2022/03/06 09:08:45;;;;;;;19.23;13.63;;;;;;;3.98;45.69;100684.28;10304898;28;20057;-68
2022/03/06 09:13:48;;;;;;;20.02;13.95;;;;;;;4.10;45.61;100689.22;10304461;28;20058;-68
2022/03/06 09:18:49;;;;;;;18.33;13.40;;;;;;;4.17;45.04;100682.16;10304181;28;20495;-68
2022/03/06 09:23:51;;;;;;;19.10;13.43;;;;;;;4.06;44.82;100687.56;10303676;28;20145;-69
2022/03/06 09:28:53;;;;;;;18.48;13.20;;;;;;;4.23;44.64;100692.41;10303437;28;20191;-68
2022/03/06 09:33:54;;;;;;;20.02;13.85;;;;;;;4.52;44.59;100690.84;10303067;28;21340;-69
2022/03/06 09:39:16;;;;;;;21.58;13.05;;;;;;;4.53;43.82;100689.97;10304003;28;20085;-68
2022/03/06 09:44:18;;;;;;;20.40;13.25;;;;;;;4.45;43.37;100681.53;10302867;28;20061;-68
2022/03/06 09:49:20;;;;;;;18.75;13.30;;;;;;;4.73;43.23;100684.31;10303063;28;20389;-68
2022/03/06 09:54:22;;;;;;;20.10;13.50;;;;;;;5.03;42.64;100687.88;10310934;28;20348;-69
2022/03/06 09:59:24;;;;;;;19.13;13.00;;;;;;;5.21;42.82;100685.66;10311126;28;20428;-68
2022/03/06 10:04:31;;;;;;;19.13;13.20;;;;;;;5.44;42.16;100687.66;10309829;28;20081;-68
2022/03/06 10:10:02;;;;;;;18.75;12.85;;;;;;;4.94;40.38;100683.78;10309706;28;20145;-68
2022/03/06 10:15:06;;;;;;;18.90;12.70;;;;;;;5.11;41.89;100676.41;10299222;28;20046;-68
2022/03/06 10:20:09;;;;;;;15.68;11.05;;;;;;;5.57;40.51;100681.25;10310101;28;20133;-68
2022/03/06 10:25:20;;;;;;;16.73;10.55;;;;;;;5.72;39.37;100682.53;10304578;28;20458;-68
2022/03/06 10:30:41;;;;;;;14.82;10.90;;;;;;;5.72;37.27;100680.81;10302700;28;20058;-68
2022/03/06 10:35:45;;;;;;;15.13;10.93;;;;;;;6.02;37.68;100655.72;10308154;28;20546;-68
2022/03/06 10:40:48;;;;;;;15.38;10.35;;;;;;;6.30;37.78;100664.41;10305599;28;20580;-68
2022/03/06 10:46:04;;;;;;;13.88;10.23;;;;;;;6.34;36.82;100648.69;10306257;28;20051;-62
2022/03/06 10:51:09;;;;;;;12.93;9.02;;;;;;;6.30;36.90;100644.50;10295808;28;20061;-61
2022/03/06 10:56:15;;;;;;;12.40;9.45;;;;;;;5.97;35.56;100650.66;10306688;28;20108;-62
2022/03/06 11:01:17;;;;;;;11.55;8.88;;;;;;;5.81;36.37;100654.63;10301339;28;20065;-61
2022/03/06 11:06:20;;;;;;;10.65;7.32;;;;;;;5.37;34.19;100653.25;10305005;28;20086;-62
2022/03/06 11:11:22;;;;;;;9.80;7.25;;;;;;;5.47;34.32;100661.66;10304208;28;20113;-62
2022/03/06 11:16:28;;;;;;;11.90;7.50;;;;;;;5.59;33.05;100644.88;10301147;28;20939;-61
2022/03/06 11:21:38;;;;;;;10.20;7.20;;;;;;;5.62;32.88;100624.88;10249869;23;20050;-76
2022/03/06 11:27:09;;;;;;;10.30;7.72;;;;;;;5.45;32.44;100640.91;10280001;28;20070;-77
2022/03/06 11:32:11;;;;;;;11.02;7.78;;;;;;;5.55;33.51;100638.94;10276178;28;21072;-77
2022/03/06 11:37:16;;;;;;;9.95;7.22;;;;;;;5.21;33.36;100633.81;10294226;28;20050;-77
2022/03/06 11:42:49;;;;;;;10.57;7.90;;;;;;;4.87;33.22;100627.81;10283342;28;20050;-77
2022/03/06 11:47:51;;;;;;;11.10;7.95;;;;;;;5.00;34.53;100625.75;10287561;28;20054;-77
2022/03/06 11:52:53;;;;;;;10.15;7.60;;;;;;;5.47;34.38;100620.97;10281698;28;20053;-77
2022/03/06 11:57:55;;;;;;;9.73;7.40;;;;;;;5.89;33.40;100608.50;10280968;28;20059;-77
2022/03/06 12:02:58;;;;;;;10.15;7.80;;;;;;;5.97;32.90;100601.34;10284448;28;20057;-77
2022/03/06 12:08:01;;;;;;;11.10;7.60;;;;;;;5.83;32.76;100589.66;10281749;28;20130;-78
2022/03/06 12:13:03;;;;;;;9.85;7.55;;;;;;;5.40;32.67;100590.91;10288565;28;20051;-77
2022/03/06 12:18:05;;;;;;;10.02;7.75;;;;;;;4.94;33.15;100597.41;10280819;28;20065;-77
2022/03/06 12:23:24;;;;;;;10.30;7.50;;;;;;;4.69;33.04;100600.63;10296380;28;20129;-78
2022/03/06 12:28:37;;;;;;;9.35;7.05;;;;;;;5.06;32.86;100584.13;10281732;28;20042;-77
2022/03/06 12:33:39;;;;;;;9.93;7.15;;;;;;;5.45;32.90;100581.25;10295747;28;20114;-77
2022/03/06 12:38:41;;;;;;;9.73;6.55;;;;;;;5.56;32.50;100575.75;10278741;28;20054;-77
2022/03/06 12:43:46;;;;;;;10.40;7.43;;;;;;;5.89;31.89;100572.16;10296555;28;20051;-77
2022/03/06 12:48:49;;;;;;;9.85;6.90;;;;;;;6.25;31.92;100567.59;10285053;28;20054;-77
2022/03/06 12:53:51;;;;;;;11.07;7.47;;;;;;;6.21;31.44;100563.38;10279269;28;21141;-78
2022/03/06 12:59:02;;;;;;;12.88;7.35;;;;;;;6.29;29.83;100551.88;10284800;28;20149;-78
2022/03/06 13:04:05;;;;;;;10.30;6.93;;;;;;;6.78;31.31;100555.41;10280740;28;20058;-78
2022/03/06 13:09:08;;;;;;;9.27;7.00;;;;;;;7.05;31.43;100538.88;10286457;28;20113;-78
2022/03/06 13:14:10;;;;;;;9.45;6.85;;;;;;;6.97;30.74;100546.94;10278912;28;20055;-79
2022/03/06 13:19:12;;;;;;;9.27;6.60;;;;;;;7.02;30.18;100533.78;10286272;28;20531;-78
2022/03/06 13:24:15;;;;;;;9.80;7.10;;;;;;;7.29;30.13;100535.38;10285434;28;20443;-78
2022/03/06 13:29:19;;;;;;;9.70;6.70;;;;;;;7.18;30.12;100530.56;10290829;28;20785;-77
2022/03/06 13:34:22;;;;;;;8.48;6.65;;;;;;;7.03;30.30;100527.66;10286993;28;20050;-78
2022/03/06 13:39:28;;;;;;;8.60;6.65;;;;;;;7.00;30.54;100527.75;10282244;28;20420;-78
2022/03/06 13:44:32;;;;;;;8.48;6.75;;;;;;;6.62;29.96;100534.31;10296844;28;20086;-78
2022/03/06 13:49:34;;;;;;;9.18;7.20;;;;;;;6.55;30.55;100538.00;10281068;28;20070;-78
2022/03/06 13:54:37;;;;;;;9.07;6.43;;;;;;;6.68;30.69;100539.31;10287399;28;20420;-77
2022/03/06 13:59:39;;;;;;;8.23;6.43;;;;;;;6.51;31.09;100533.81;10291851;28;20054;-78
2022/03/06 14:04:47;;;;;;;8.25;6.47;;;;;;;6.60;30.12;100536.13;10289414;28;20038;-78
2022/03/06 14:09:48;;;;;;;9.65;7.28;;;;;;;6.48;30.97;100540.88;10297719;28;20061;-78
2022/03/06 14:14:51;;;;;;;8.88;6.88;;;;;;;6.27;30.78;100535.47;10295889;28;20057;-78
2022/03/06 14:20:08;;;;;;;9.35;6.75;;;;;;;6.46;29.62;100534.88;10287031;28;20070;-78
2022/03/06 14:25:10;;;;;;;9.88;6.57;;;;;;;6.57;30.80;100524.97;10289818;28;20062;-77
2022/03/06 14:30:11;;;;;;;8.55;6.38;;;;;;;6.30;30.79;100521.56;10290630;28;20081;-78
2022/03/06 14:35:14;;;;;;;8.45;6.85;;;;;;;6.33;31.31;100522.28;10285565;28;20400;-78
2022/03/06 14:40:17;;;;;;;8.93;6.50;;;;;;;6.45;31.64;100523.63;10290448;28;20050;-78
2022/03/06 14:45:18;;;;;;;8.85;6.90;;;;;;;6.37;30.49;100517.00;10287556;28;20050;-78
2022/03/06 14:50:21;;;;;;;12.70;7.47;;;;;;;6.56;30.70;100524.13;10286039;28;20105;-78
2022/03/06 14:55:23;;;;;;;10.98;8.85;;;;;;;6.40;31.78;100514.28;10289069;28;20093;-78
2022/03/06 15:00:25;;;;;;;11.43;8.90;;;;;;;6.39;31.04;100526.44;10282521;28;20121;-78
2022/03/06 15:05:27;;;;;;;13.00;8.93;;;;;;;6.30;30.85;100516.34;10291581;28;20058;-78
2022/03/06 15:10:28;;;;;;;11.00;8.52;;;;;;;6.31;30.80;100528.44;10290377;28;20078;-78
2022/03/06 15:15:31;;;;;;;13.10;9.90;;;;;;;6.21;30.59;100517.47;10279312;28;21088;-78
2022/03/06 15:20:33;;;;;;;12.05;9.82;;;;;;;5.99;30.59;100526.00;10288833;28;20050;-78
2022/03/06 15:25:34;;;;;;;15.02;10.27;;;;;;;6.13;31.07;100524.66;10289794;28;20113;-78
2022/03/06 15:30:36;;;;;;;13.93;11.50;;;;;;;5.95;31.78;100524.41;10292097;28;20125;-77
2022/03/06 15:35:38;;;;;;;15.85;11.80;;;;;;;5.78;30.75;100517.13;10299017;28;20502;-78
2022/03/06 15:40:40;;;;;;;14.93;11.70;;;;;;;5.52;32.36;100527.44;10297456;28;20046;-78
2022/03/06 15:45:42;;;;;;;13.23;11.80;;;;;;;5.33;31.96;100521.13;10292074;28;20050;-77
2022/03/06 15:50:44;;;;;;;14.48;11.85;;;;;;;5.45;32.56;100518.16;10289770;28;20058;-78
2022/03/06 15:55:46;;;;;;;13.10;10.90;;;;;;;5.38;31.92;100522.69;10287265;28;20148;-77
2022/03/06 16:00:48;;;;;;;15.45;11.38;;;;;;;5.44;32.81;100517.31;10289935;28;20057;-78
2022/03/06 16:05:50;;;;;;;14.05;12.07;;;;;;;5.42;33.25;100521.69;10289751;28;20508;-78
2022/03/06 16:10:52;;;;;;;13.18;11.13;;;;;;;5.26;32.38;100519.59;10283591;28;20084;-78
2022/03/06 16:15:54;;;;;;;13.00;10.88;;;;;;;5.19;33.14;100518.91;10281649;28;20053;-78
2022/03/06 16:20:59;;;;;;;12.80;10.20;;;;;;;4.89;33.05;100516.31;10292794;28;20069;-77
2022/03/06 16:26:04;;;;;;;11.90;9.50;;;;;;;4.97;32.82;100514.34;10292441;28;20061;-77
2022/03/06 16:31:08;;;;;;;11.35;9.30;;;;;;;4.84;33.64;100511.25;10279190;28;20431;-78
2022/03/06 16:36:10;;;;;;;10.70;9.18;;;;;;;4.69;33.60;100520.31;10282503;28;20057;-78
2022/03/06 16:41:12;;;;;;;11.35;9.50;;;;;;;4.61;34.27;100519.66;10279722;28;20054;-77
2022/03/06 16:46:13;;;;;;;11.27;9.50;;;;;;;4.37;34.93;100520.25;10284670;28;20050;-77
2022/03/06 16:51:16;;;;;;;12.55;9.38;;;;;;;4.00;35.31;100527.25;10274508;28;20061;-78
2022/03/06 16:56:20;;;;;;;11.77;9.32;;;;;;;3.63;35.96;100524.63;10284561;28;20528;-77
2022/03/06 17:01:23;;;;;;;13.10;9.40;;;;;;;3.51;36.65;100527.47;10276041;28;20101;-77
2022/03/06 17:06:25;;;;;;;14.93;9.60;;;;;;;3.35;37.47;100530.41;10290502;28;20055;-77
2022/03/06 17:11:29;;;;;;;14.38;10.10;;;;;;;3.22;37.24;100536.69;10280028;28;20539;-77
2022/03/06 17:16:34;;;;;;;14.73;9.20;;;;;;;3.04;37.03;100546.53;10289069;28;20050;-77
2022/03/06 17:21:37;;;;;;;13.05;9.50;;;;;;;2.97;37.25;100552.69;10289111;28;20055;-77
2022/03/06 17:26:40;;;;;;;14.10;9.45;;;;;;;2.86;37.31;100569.28;10283739;28;20051;-77
2022/03/06 17:31:43;;;;;;;12.07;9.48;;;;;;;2.65;38.00;100573.09;10274055;28;20524;-77
2022/03/06 17:36:45;;;;;;;12.07;8.65;;;;;;;2.57;38.51;100579.25;10287712;28;20050;-77
2022/03/06 17:41:47;;;;;;;11.10;8.52;;;;;;;2.55;38.47;100592.22;10272500;28;21443;-77
2022/03/06 17:46:49;;;;;;;11.73;8.60;;;;;;;2.36;38.23;100595.94;10283323;28;20065;-77
2022/03/06 17:51:51;;;;;;;15.30;9.05;;;;;;;2.40;38.34;100601.94;10292127;28;20141;-77
2022/03/06 17:56:54;;;;;;;11.85;8.85;;;;;;;2.17;38.51;100613.44;10283917;28;20058;-77
2022/03/06 18:01:58;;;;;;;12.35;9.73;;;;;;;2.26;38.82;100619.34;10284780;28;20058;-77
2022/03/06 18:07:00;;;;;;;13.95;10.02;;;;;;;2.13;38.72;100629.84;10285045;28;20062;-77
2022/03/06 18:12:02;;;;;;;13.07;10.48;;;;;;;2.09;39.17;100624.78;10287554;28;20050;-77
2022/03/06 18:17:04;;;;;;;13.40;10.52;;;;;;;2.12;38.96;100637.63;10289552;28;20065;-77
2022/03/06 18:22:06;;;;;;;14.30;10.48;;;;;;;2.06;39.00;100638.56;10283827;28;20061;-77
2022/03/06 18:27:14;;;;;;;15.02;10.80;;;;;;;2.14;39.03;100629.00;10288710;28;20117;-77
2022/03/06 18:32:16;;;;;;;13.18;10.50;;;;;;;2.20;38.95;100646.09;10289734;28;20047;-77
2022/03/06 18:37:18;;;;;;;14.98;11.68;;;;;;;2.34;39.24;100639.00;10290334;28;20050;-77
2022/03/06 18:42:24;;;;;;;13.88;10.73;;;;;;;2.32;38.80;100638.19;10289778;28;20047;-77
2022/03/06 18:47:26;;;;;;;16.83;11.27;;;;;;;2.34;39.51;100646.75;10282962;28;20627;-77
2022/03/06 18:52:30;;;;;;;15.07;11.10;;;;;;;2.39;39.30;100649.25;10290741;28;20090;-74
2022/03/06 18:57:37;;;;;;;14.23;10.85;;;;;;;2.39;39.37;100652.72;10296927;28;20050;-74
2022/03/06 19:02:38;;;;;;;14.52;11.23;;;;;;;2.38;39.16;100658.72;10289263;28;21169;-74
2022/03/06 19:07:40;;;;;;;14.77;11.48;;;;;;;2.45;38.96;100664.66;10283613;28;20059;-74
2022/03/06 19:12:44;;;;;;;13.50;10.77;;;;;;;2.45;38.68;100670.69;10284986;28;20528;-74
2022/03/06 19:17:46;;;;;;;15.55;10.68;;;;;;;2.54;38.99;100678.28;10285378;28;20059;-74
2022/03/06 19:22:49;;;;;;;14.10;10.77;;;;;;;2.50;38.95;100679.19;10300656;28;20127;-74
2022/03/06 19:27:50;;;;;;;12.85;10.38;;;;;;;2.56;38.82;100680.84;10289614;28;20620;-74
2022/03/06 19:32:52;;;;;;;15.52;10.57;;;;;;;2.57;38.34;100679.97;10283950;28;20137;-74
2022/03/06 19:37:54;;;;;;;14.90;10.20;;;;;;;2.70;38.92;100684.91;10291808;28;20054;-74
2022/03/06 19:42:56;;;;;;;13.48;10.05;;;;;;;2.59;39.05;100688.53;10293406;28;20497;-74
2022/03/06 19:47:58;;;;;;;13.90;9.75;;;;;;;2.68;39.03;100686.66;10281997;28;20058;-74
2022/03/06 19:53:00;;;;;;;12.57;10.18;;;;;;;2.82;39.05;100694.22;10278673;28;21054;-74
2022/03/06 19:58:02;;;;;;;13.55;10.18;;;;;;;2.80;39.04;100694.25;10281291;28;20089;-74
2022/03/06 20:03:05;;;;;;;13.48;10.32;;;;;;;2.59;39.09;100701.44;10272919;28;20050;-74
2022/03/06 20:08:08;;;;;;;13.20;9.43;;;;;;;2.58;39.45;100717.84;10290257;28;20069;-74
2022/03/06 20:13:09;;;;;;;12.60;9.25;;;;;;;2.49;39.82;100726.56;10290370;28;20055;-74
2022/03/06 20:18:11;;;;;;;11.05;8.75;;;;;;;2.33;40.04;100729.38;10290208;28;20101;-74
2022/03/06 20:23:14;;;;;;;11.82;8.68;;;;;;;2.26;40.65;100733.75;10290084;28;20522;-75
2022/03/06 20:28:16;;;;;;;12.23;9.00;;;;;;;2.27;41.00;100734.63;10281747;28;20059;-75
2022/03/06 20:33:24;;;;;;;13.27;8.85;;;;;;;2.23;41.19;100744.13;10295269;28;20157;-75
2022/03/06 20:38:26;;;;;;;11.82;8.48;;;;;;;2.04;41.80;100747.81;10295716;28;20046;-75
2022/03/06 20:43:28;;;;;;;12.13;8.10;;;;;;;2.06;41.81;100758.97;10297356;28;20400;-75
2022/03/06 20:48:30;;;;;;;12.75;8.13;;;;;;;1.96;42.06;100754.78;10286578;28;20050;-75
2022/03/06 20:53:37;;;;;;;12.35;7.85;;;;;;;2.05;42.02;100759.84;10289732;28;20046;-75
2022/03/06 20:58:40;;;;;;;10.55;7.00;;;;;;;1.63;42.48;100768.03;10279830;28;20420;-74
2022/03/06 21:03:42;;;;;;;10.98;6.75;;;;;;;1.73;42.12;100772.22;10280944;28;20054;-74
2022/03/06 21:08:45;;;;;;;9.32;6.47;;;;;;;1.63;41.68;100783.50;10278916;28;20055;-74
2022/03/06 21:13:47;;;;;;;8.30;6.07;;;;;;;1.32;41.91;100786.38;10286782;28;20055;-74
2022/03/06 21:18:49;;;;;;;7.50;5.95;;;;;;;1.40;41.71;100788.03;10284840;28;20058;-75
2022/03/06 21:23:51;;;;;;;8.02;5.70;;;;;;;1.51;41.52;100775.91;10279433;28;20061;-75
2022/03/06 21:28:54;;;;;;;9.15;5.65;;;;;;;1.24;41.41;100790.75;10279137;28;20050;-74
2022/03/06 21:33:57;;;;;;;9.52;5.97;;;;;;;1.50;41.47;100789.66;10287386;28;20118;-74
2022/03/06 21:39:02;;;;;;;7.72;5.60;;;;;;;1.26;41.38;100796.75;10285454;28;20125;-74
2022/03/06 21:44:11;;;;;;;10.10;5.85;;;;;;;1.17;41.27;100795.97;10275289;28;20148;-75
2022/03/06 21:49:20;;;;;;;8.02;5.70;;;;;;;1.13;41.23;100789.13;10297581;28;20528;-74
2022/03/06 21:54:38;;;;;;;8.45;5.70;;;;;;;0.90;41.71;100789.28;10289094;28;20053;-74
2022/03/06 21:59:48;;;;;;;8.82;5.47;;;;;;;0.77;41.90;100790.22;10298092;28;20146;-74
2022/03/06 22:04:53;;;;;;;9.82;5.78;;;;;;;0.62;42.11;100782.63;10283317;28;20063;-74
2022/03/06 22:09:58;;;;;;;7.97;5.38;;;;;;;0.56;42.51;100794.66;10279353;28;20055;-75
2022/03/06 22:15:10;;;;;;;7.95;5.70;;;;;;;0.28;42.64;100789.66;10281159;28;20051;-74
2022/03/06 22:20:21;;;;;;;9.70;5.22;;;;;;;0.19;42.51;100789.69;10287831;28;20062;-74
2022/03/06 22:25:31;;;;;;;8.32;5.22;;;;;;;0.15;43.06;100787.13;10302992;28;20061;-75
2022/03/06 22:30:35;;;;;;;8.00;5.60;;;;;;;0.07;43.30;100783.75;10281703;28;20106;-74
2022/03/06 22:35:37;;;;;;;7.35;5.30;;;;;;;0.05;43.45;100788.91;10288960;28;20719;-74
2022/03/06 22:40:42;;;;;;;8.63;5.47;;;;;;;-0.06;43.42;100797.50;10289611;28;20058;-74
2022/03/06 22:45:43;;;;;;;8.63;5.60;;;;;;;-0.29;43.85;100801.84;10294016;28;20052;-74
2022/03/06 22:50:47;;;;;;;9.40;5.78;;;;;;;-0.27;43.93;100802.72;10289504;28;20602;-74
2022/03/06 22:55:49;;;;;;;7.53;5.22;;;;;;;-0.33;44.47;100809.56;10288606;28;20085;-75
2022/03/06 23:00:57;;;;;;;8.15;5.35;;;;;;;-0.34;43.97;100813.00;10281426;28;20133;-74
2022/03/06 23:11:19;;;;;;;8.70;5.57;;;;;;;-0.69;44.62;100822.44;10282371;28;20505;-74